createdAt,value
2018-08-22T00:02:18.287Z,21.90
2018-08-22T00:04:47.236Z,19.82
2018-08-22T00:07:17.657Z,17.57
2018-08-22T00:09:46.169Z,18.13
2018-08-22T00:17:10.464Z,19.30
2018-08-22T00:19:38.980Z,17.80
2018-08-22T00:22:07.497Z,18.83
2018-08-22T00:24:36.289Z,19.07
2018-08-22T00:27:04.892Z,17.93
2018-08-22T00:29:33.683Z,19.40
2018-08-22T00:32:02.242Z,19.37
2018-08-22T00:34:30.732Z,20.37
2018-08-22T00:36:59.242Z,19.10
2018-08-22T00:39:27.750Z,18.57
2018-08-22T00:41:56.819Z,18.90
2018-08-22T00:44:25.318Z,20.23
2018-08-22T00:46:53.859Z,19.50
2018-08-22T00:49:22.438Z,17.03
2018-08-22T00:51:50.949Z,18.47
2018-08-22T00:54:19.481Z,18.95
2018-08-22T00:56:47.949Z,18.40
2018-08-22T00:59:17.392Z,19.75
2018-08-22T01:01:45.893Z,20.00
2018-08-22T01:09:11.191Z,21.27
2018-08-22T01:11:39.672Z,20.13
2018-08-22T01:14:08.185Z,20.60
2018-08-22T01:16:36.704Z,18.03
2018-08-22T01:19:05.231Z,19.57
2018-08-22T01:21:33.696Z,18.65
2018-08-22T01:24:02.852Z,18.20
2018-08-22T01:26:32.185Z,19.90
2018-08-22T01:29:00.664Z,20.20
2018-08-22T01:31:30.484Z,20.60
2018-08-22T01:33:59.065Z,22.37
2018-08-22T01:36:27.663Z,20.52
2018-08-22T01:38:56.206Z,20.17
2018-08-22T01:41:24.740Z,22.02
2018-08-22T01:43:53.294Z,24.20
2018-08-22T01:46:21.825Z,24.87
2018-08-22T01:48:50.373Z,22.70
2018-08-22T01:51:18.857Z,20.30
2018-08-22T01:53:47.944Z,20.65
2018-08-22T01:56:17.409Z,20.77
2018-08-22T01:58:45.994Z,18.83
2018-08-22T02:06:08.816Z,18.33
2018-08-22T02:08:37.545Z,18.87
2018-08-22T02:11:06.837Z,18.90
2018-08-22T02:13:36.089Z,18.77
2018-08-22T02:16:04.843Z,18.90
2018-08-22T02:18:33.309Z,18.10
2018-08-22T02:21:01.844Z,19.40
2018-08-22T02:23:30.367Z,19.85
2018-08-22T02:25:59.179Z,18.67
2018-08-22T02:28:27.745Z,19.10
2018-08-22T02:30:56.245Z,19.07
2018-08-22T02:33:24.793Z,18.70
2018-08-22T02:35:53.861Z,18.57
2018-08-22T02:38:24.587Z,19.20
2018-08-22T02:40:55.275Z,21.00
2018-08-22T02:43:24.010Z,19.10
2018-08-22T02:45:52.488Z,19.17
2018-08-22T02:48:21.034Z,20.92
2018-08-22T02:50:52.385Z,19.60
2018-08-22T02:53:20.877Z,20.37
2018-08-22T02:55:50.920Z,19.77
2018-08-22T02:58:19.391Z,20.37
2018-08-22T03:00:47.923Z,19.83
2018-08-22T03:03:17.481Z,19.75
2018-08-22T03:05:46.053Z,19.30
2018-08-22T03:13:11.506Z,31.30
2018-08-22T03:15:39.989Z,31.87
2018-08-22T03:18:08.794Z,31.30
2018-08-22T03:20:37.520Z,31.17
2018-08-22T03:23:06.000Z,31.03
2018-08-22T03:25:34.509Z,29.30
2018-08-22T03:28:03.021Z,27.03
2018-08-22T03:30:31.558Z,25.72
2018-08-22T03:33:00.093Z,25.80
2018-08-22T03:35:30.326Z,26.80
2018-08-22T03:37:58.831Z,25.30
2018-08-22T03:40:27.685Z,24.35
2018-08-22T03:42:56.274Z,24.67
2018-08-22T03:45:24.734Z,26.07
2018-08-22T03:47:53.348Z,24.80
2018-08-22T03:50:21.922Z,26.20
2018-08-22T03:52:50.397Z,25.33
2018-08-22T03:55:18.872Z,26.03
2018-08-22T03:57:47.467Z,25.50
2018-08-22T04:00:17.385Z,24.68
2018-08-22T04:02:45.933Z,25.00
2018-08-22T04:10:07.702Z,24.90
2018-08-22T04:12:36.191Z,27.47
2018-08-22T04:15:04.757Z,26.23
2018-08-22T04:17:37.644Z,25.40
2018-08-22T04:20:06.818Z,25.30
2018-08-22T04:22:36.519Z,24.00
2018-08-22T04:25:05.226Z,22.23
2018-08-22T04:27:33.757Z,22.98
2018-08-22T04:30:02.240Z,21.60
2018-08-22T04:32:30.761Z,22.98
2018-08-22T04:34:59.294Z,20.60
2018-08-22T04:37:27.885Z,22.05
2018-08-22T04:39:56.829Z,22.40
2018-08-22T04:42:25.306Z,26.12
2018-08-22T04:44:53.822Z,25.87
2018-08-22T04:47:22.552Z,27.40
2018-08-22T04:49:51.509Z,26.93
2018-08-22T04:52:20.022Z,27.70
2018-08-22T04:54:48.757Z,25.77
2018-08-22T04:57:17.531Z,24.00
2018-08-22T04:59:46.097Z,24.47
2018-08-22T05:07:10.438Z,23.77
2018-08-22T05:09:38.942Z,23.67
2018-08-22T05:12:08.018Z,24.87
2018-08-22T05:14:37.185Z,23.50
2018-08-22T05:17:06.197Z,22.70
2018-08-22T05:19:34.729Z,22.73
2018-08-22T05:22:03.278Z,24.10
2018-08-22T05:24:32.027Z,21.50
2018-08-22T05:27:00.556Z,23.00
2018-08-22T05:29:29.154Z,23.18
2018-08-22T05:31:59.077Z,22.07
2018-08-22T05:34:29.103Z,22.10
2018-08-22T05:36:57.609Z,22.50
2018-08-22T05:39:26.119Z,22.90
2018-08-22T05:41:54.601Z,22.87
2018-08-22T05:44:23.145Z,23.42
2018-08-22T05:46:51.618Z,22.23
2018-08-22T05:49:20.110Z,21.73
2018-08-22T05:51:49.363Z,22.23
2018-08-22T05:54:17.963Z,23.50
2018-08-22T05:56:47.356Z,23.12
2018-08-22T05:59:17.431Z,26.48
2018-08-22T06:01:46.517Z,29.27
2018-08-22T06:09:11.589Z,24.67
2018-08-22T06:11:40.112Z,25.77
2018-08-22T06:14:09.028Z,23.80
2018-08-22T06:16:37.951Z,23.53
2018-08-22T06:19:06.548Z,23.15
2018-08-22T06:21:35.009Z,21.60
2018-08-22T06:24:03.549Z,22.35
2018-08-22T06:26:32.569Z,20.20
2018-08-22T06:29:01.124Z,19.43
2018-08-22T06:31:29.913Z,19.07
2018-08-22T06:33:58.366Z,19.87
2018-08-22T06:36:26.995Z,20.67
2018-08-22T06:38:55.417Z,18.43
2018-08-22T06:41:24.249Z,17.13
2018-08-22T06:43:52.738Z,15.67
2018-08-22T06:46:21.257Z,14.18
2018-08-22T06:48:50.471Z,13.70
2018-08-22T06:51:19.401Z,12.23
2018-08-22T06:53:48.615Z,11.73
2018-08-22T06:56:17.441Z,11.33
2018-08-22T06:58:46.583Z,10.47
2018-08-22T07:06:09.181Z,9.67
2018-08-22T07:08:37.662Z,9.90
2018-08-22T07:11:05.812Z,8.80
2018-08-22T07:13:35.119Z,8.73
2018-08-22T07:16:04.256Z,7.73
2018-08-22T07:18:32.795Z,7.40
2018-08-22T07:21:01.443Z,6.80
2018-08-22T07:23:30.121Z,7.47
2018-08-22T07:25:58.670Z,7.27
2018-08-22T07:28:27.223Z,7.03
2018-08-22T07:30:55.711Z,6.90
2018-08-22T07:33:24.206Z,6.73
2018-08-22T07:35:53.021Z,6.83
2018-08-22T07:38:21.606Z,7.03
2018-08-22T07:40:50.556Z,7.03
2018-08-22T07:43:19.114Z,7.70
2018-08-22T07:45:48.059Z,6.67
2018-08-22T07:48:18.580Z,6.62
2018-08-22T07:50:47.088Z,6.70
2018-08-22T07:53:17.526Z,6.30
2018-08-22T07:55:46.014Z,6.90
2018-08-22T08:03:13.445Z,5.77
2018-08-22T08:05:41.938Z,5.60
2018-08-22T08:08:10.454Z,6.60
2018-08-22T08:10:38.985Z,5.93
2018-08-22T08:13:14.109Z,6.70
2018-08-22T08:15:43.567Z,5.77
2018-08-22T08:18:12.627Z,5.90
2018-08-22T08:20:41.123Z,6.77
2018-08-22T08:23:09.687Z,5.93
2018-08-22T08:25:38.277Z,5.80
2018-08-22T08:28:06.838Z,5.90
2018-08-22T08:30:35.434Z,5.60
2018-08-22T08:33:03.897Z,5.90
2018-08-22T08:35:32.585Z,5.67
2018-08-22T08:38:01.129Z,6.30
2018-08-22T08:40:31.600Z,5.90
2018-08-22T08:43:00.222Z,8.00
2018-08-22T08:45:28.994Z,5.70
2018-08-22T08:47:57.450Z,5.43
2018-08-22T08:50:25.970Z,6.33
2018-08-22T08:52:54.565Z,5.90
2018-08-22T08:55:23.062Z,12.00
2018-08-22T08:57:51.594Z,5.50
2018-08-22T09:00:20.193Z,5.90
2018-08-22T09:02:50.116Z,6.10
2018-08-22T09:05:18.669Z,5.30
2018-08-22T09:07:47.692Z,14.47
2018-08-22T09:15:09.206Z,6.03
2018-08-22T09:17:37.718Z,5.37
2018-08-22T09:20:07.802Z,6.30
2018-08-22T09:22:36.375Z,6.00
2018-08-22T09:25:04.998Z,6.40
2018-08-22T09:27:33.467Z,5.80
2018-08-22T09:30:03.153Z,6.40
2018-08-22T09:32:31.613Z,6.92
2018-08-22T09:35:01.617Z,5.87
2018-08-22T09:37:30.121Z,6.15
2018-08-22T09:39:58.689Z,5.57
2018-08-22T09:42:27.142Z,5.50
2018-08-22T09:44:55.734Z,5.27
2018-08-22T09:47:24.181Z,5.65
2018-08-22T09:49:52.624Z,5.83
2018-08-22T09:52:21.594Z,5.03
2018-08-22T09:55:01.537Z,5.60
2018-08-22T09:57:30.616Z,5.67
2018-08-22T09:59:59.114Z,6.17
2018-08-22T10:02:27.616Z,6.27
2018-08-22T10:04:56.356Z,5.77
2018-08-22T10:07:24.961Z,6.58
2018-08-22T10:09:53.496Z,5.90
2018-08-22T10:12:22.401Z,5.87
2018-08-22T10:14:51.456Z,6.10
2018-08-22T10:17:20.013Z,6.50
2018-08-22T10:19:48.469Z,6.80
2018-08-22T10:22:17.794Z,7.10
2018-08-22T10:24:46.322Z,8.00
2018-08-22T10:32:11.044Z,8.57
2018-08-22T10:34:39.545Z,8.70
2018-08-22T10:37:08.005Z,8.97
2018-08-22T10:39:36.607Z,9.90
2018-08-22T10:42:05.089Z,9.40
2018-08-22T10:44:33.630Z,9.60
2018-08-22T10:47:02.133Z,8.70
2018-08-22T10:49:30.622Z,9.30
2018-08-22T10:51:59.117Z,9.67
2018-08-22T10:54:28.601Z,10.43
2018-08-22T10:56:57.081Z,9.43
2018-08-22T10:59:25.547Z,9.03
2018-08-22T11:01:54.159Z,9.50
2018-08-22T11:04:22.615Z,9.50
2018-08-22T11:06:51.050Z,9.23
2018-08-22T11:09:19.582Z,9.63
2018-08-22T11:11:48.058Z,8.60
2018-08-22T11:14:17.438Z,8.70
2018-08-22T11:16:46.323Z,9.23
2018-08-22T11:24:23.106Z,9.63
2018-08-22T11:27:02.791Z,9.10
2018-08-22T11:29:42.541Z,9.70
2018-08-22T11:32:22.209Z,9.77
2018-08-22T11:34:51.438Z,9.80
2018-08-22T11:37:20.077Z,8.87
2018-08-22T11:39:50.597Z,9.27
2018-08-22T11:42:19.895Z,8.70
2018-08-22T11:44:48.351Z,9.00
2018-08-22T11:47:17.597Z,8.97
2018-08-22T11:49:46.125Z,8.67
2018-08-22T11:57:11.416Z,9.47
2018-08-22T11:59:40.972Z,8.87
2018-08-22T12:02:09.902Z,9.00
2018-08-22T12:04:38.628Z,9.05
2018-08-22T12:07:07.110Z,8.50
2018-08-22T12:09:35.579Z,9.20
2018-08-22T12:12:04.078Z,8.97
2018-08-22T12:14:32.588Z,8.77
2018-08-22T12:17:01.102Z,8.70
2018-08-22T12:19:30.322Z,8.90
2018-08-22T12:21:58.847Z,9.73
2018-08-22T12:24:27.909Z,8.30
2018-08-22T12:26:56.445Z,9.73
2018-08-22T12:29:24.922Z,8.33
2018-08-22T12:31:53.409Z,8.57
2018-08-22T12:34:22.693Z,8.63
2018-08-22T12:36:51.161Z,8.87
2018-08-22T12:39:19.633Z,9.17
2018-08-22T12:41:54.238Z,8.80
2018-08-22T12:44:22.781Z,8.53
2018-08-22T12:46:51.256Z,9.60
2018-08-22T12:49:19.889Z,9.50
2018-08-22T12:51:48.504Z,8.23
2018-08-22T12:54:17.509Z,8.97
2018-08-22T12:56:46.055Z,8.53
2018-08-22T13:04:15.372Z,8.40
2018-08-22T13:06:43.909Z,8.77
2018-08-22T13:09:13.503Z,9.20
2018-08-22T13:11:42.146Z,9.40
2018-08-22T13:14:10.812Z,9.17
2018-08-22T13:16:39.349Z,8.97
2018-08-22T13:19:07.909Z,9.40
2018-08-22T13:21:36.407Z,9.00
2018-08-22T13:24:05.013Z,8.80
2018-08-22T13:26:34.359Z,8.83
2018-08-22T13:29:02.976Z,8.17
2018-08-22T13:31:32.179Z,9.10
2018-08-22T13:34:00.688Z,8.67
2018-08-22T13:36:29.187Z,8.40
2018-08-22T13:38:58.056Z,9.20
2018-08-22T13:41:26.611Z,8.65
2018-08-22T13:43:55.152Z,8.43
2018-08-22T13:46:23.684Z,9.15
2018-08-22T13:48:52.555Z,9.53
2018-08-22T13:51:21.119Z,8.65
2018-08-22T13:53:49.632Z,8.10
2018-08-22T13:56:18.201Z,8.57
2018-08-22T13:58:47.024Z,8.30
2018-08-22T14:01:17.413Z,9.23
2018-08-22T14:03:45.930Z,8.20
2018-08-22T14:11:10.708Z,8.00
2018-08-22T14:13:39.230Z,8.87
2018-08-22T14:16:07.773Z,8.57
2018-08-22T14:18:36.321Z,8.30
2018-08-22T14:21:04.867Z,8.80
2018-08-22T14:23:33.412Z,8.60
2018-08-22T14:26:01.994Z,7.73
2018-08-22T14:28:31.273Z,8.30
2018-08-22T14:30:59.844Z,7.87
2018-08-22T14:33:28.692Z,7.77
2018-08-22T14:35:57.357Z,8.43
2018-08-22T14:38:25.988Z,8.43
2018-08-22T14:40:54.621Z,7.90
2018-08-22T14:43:23.353Z,8.63
2018-08-22T14:45:51.825Z,7.57
2018-08-22T14:48:20.360Z,7.30
2018-08-22T14:50:48.853Z,7.40
2018-08-22T14:53:17.358Z,7.70
2018-08-22T14:55:46.406Z,6.77
2018-08-22T15:03:09.533Z,6.87
2018-08-22T15:05:37.822Z,7.10
2018-08-22T15:08:06.342Z,8.17
2018-08-22T15:10:34.888Z,6.93
2018-08-22T15:13:03.432Z,7.40
2018-08-22T15:15:31.830Z,7.50
2018-08-22T15:18:00.571Z,7.67
2018-08-22T15:20:29.092Z,6.53
2018-08-22T15:22:58.930Z,6.80
2018-08-22T15:25:27.619Z,6.65
2018-08-22T15:27:56.065Z,6.97
2018-08-22T15:30:25.151Z,7.30
2018-08-22T15:32:53.709Z,7.20
2018-08-22T15:35:23.152Z,7.40
2018-08-22T15:37:51.732Z,8.30
2018-08-22T15:40:20.710Z,6.83
2018-08-22T15:42:49.205Z,8.00
2018-08-22T15:45:17.806Z,7.10
2018-08-22T15:47:46.397Z,7.30
2018-08-22T15:55:15.327Z,6.80
2018-08-22T15:57:55.358Z,7.00
2018-08-22T16:00:32.772Z,7.43
2018-08-22T16:03:02.646Z,7.77
2018-08-22T16:05:31.482Z,6.90
2018-08-22T16:08:00.561Z,7.63
2018-08-22T16:10:29.387Z,8.20
2018-08-22T16:12:58.589Z,7.77
2018-08-22T16:15:27.952Z,7.07
2018-08-22T16:17:57.438Z,7.33
2018-08-22T16:20:26.927Z,6.87
2018-08-22T16:22:55.551Z,7.40
2018-08-22T16:25:29.050Z,7.37
2018-08-22T16:27:57.569Z,7.57
2018-08-22T16:30:26.470Z,7.40
2018-08-22T16:32:55.839Z,7.47
2018-08-22T16:35:24.355Z,7.17
2018-08-22T16:38:01.923Z,7.57
2018-08-22T16:40:36.265Z,7.50
2018-08-22T16:43:04.857Z,7.90
2018-08-22T16:45:40.190Z,7.87
2018-08-22T16:48:08.674Z,7.93
2018-08-22T16:50:37.199Z,7.40
2018-08-22T16:53:05.712Z,7.03
2018-08-22T16:55:34.188Z,7.17
2018-08-22T16:58:02.683Z,7.43
2018-08-22T17:00:38.462Z,7.70
2018-08-22T17:03:08.170Z,7.30
2018-08-22T17:05:36.777Z,7.30
2018-08-22T17:08:05.341Z,7.60
2018-08-22T17:10:50.791Z,8.18
2018-08-22T17:13:28.314Z,8.33
2018-08-22T17:15:57.598Z,8.33
2018-08-22T17:18:26.365Z,7.30
2018-08-22T17:20:54.969Z,7.77
2018-08-22T17:23:23.529Z,7.50
2018-08-22T17:25:52.049Z,8.10
2018-08-22T17:28:40.033Z,7.47
2018-08-22T17:31:09.750Z,7.72
2018-08-22T17:33:39.446Z,7.27
2018-08-22T17:36:09.101Z,8.73
2018-08-22T17:38:37.588Z,8.10
2018-08-22T17:41:06.281Z,7.93
2018-08-22T17:43:54.813Z,8.50
2018-08-22T17:46:24.573Z,8.00
2018-08-22T17:48:53.061Z,8.23
2018-08-22T17:51:22.269Z,8.63
2018-08-22T17:53:50.786Z,8.20
2018-08-22T18:07:51.418Z,8.93
2018-08-22T18:10:19.926Z,9.73
2018-08-22T18:12:48.414Z,9.00
2018-08-22T18:15:16.926Z,8.90
2018-08-22T18:17:46.271Z,10.17
2018-08-22T18:20:15.863Z,10.10
2018-08-22T18:22:45.096Z,9.73
2018-08-22T18:25:13.580Z,9.40
2018-08-22T18:27:42.174Z,9.63
2018-08-22T18:30:11.767Z,10.77
2018-08-22T18:32:40.357Z,10.27
2018-08-22T18:35:10.906Z,9.80
2018-08-22T18:37:40.148Z,10.50
2018-08-22T18:40:30.814Z,9.57
2018-08-22T18:43:03.526Z,10.30
2018-08-22T18:47:43.805Z,9.80
2018-08-22T18:50:12.425Z,10.30
2018-08-22T18:52:40.960Z,10.10
2018-08-22T18:55:09.459Z,10.93
2018-08-22T18:57:38.000Z,10.93
2018-08-22T19:00:08.353Z,14.00
2018-08-22T19:02:36.841Z,11.50
2018-08-22T19:05:18.576Z,12.73
2018-08-22T19:07:58.816Z,12.60
2018-08-22T19:10:30.614Z,11.30
2018-08-22T19:13:04.433Z,11.03
2018-08-22T19:15:33.214Z,12.10
2018-08-22T19:18:02.273Z,11.60
2018-08-22T19:20:30.801Z,11.20
2018-08-22T19:22:59.306Z,12.93
2018-08-22T19:25:27.816Z,11.00
2018-08-22T19:27:56.317Z,11.53
2018-08-22T19:30:24.868Z,13.30
2018-08-22T19:32:53.381Z,11.30
2018-08-22T19:35:23.045Z,12.70
2018-08-22T19:37:55.785Z,13.80
2018-08-22T19:40:25.683Z,12.93
2018-08-22T19:42:54.183Z,12.43
2018-08-22T19:45:23.164Z,13.30
2018-08-22T19:47:51.659Z,12.87
2018-08-22T19:50:20.141Z,12.47
2018-08-22T19:52:48.832Z,13.00
2018-08-22T19:55:17.385Z,13.20
2018-08-22T19:57:45.952Z,12.97
2018-08-22T20:00:15.142Z,12.77
2018-08-22T20:02:43.646Z,11.80
2018-08-22T20:05:12.858Z,13.27
2018-08-22T20:07:42.881Z,13.23
2018-08-22T20:10:11.585Z,12.93
2018-08-22T20:12:54.088Z,13.90
2018-08-22T20:15:22.993Z,13.27
2018-08-22T20:17:52.647Z,14.03
2018-08-22T20:20:21.704Z,14.00
2018-08-22T20:22:52.420Z,14.30
2018-08-22T20:25:20.986Z,13.90
2018-08-22T20:27:49.578Z,14.20
2018-08-22T20:30:19.295Z,13.70
2018-08-22T20:32:58.830Z,14.00
2018-08-22T20:35:32.429Z,13.90
2018-08-22T20:38:02.138Z,14.67
2018-08-22T20:40:30.737Z,13.93
2018-08-22T20:42:59.293Z,13.20
2018-08-22T20:45:32.224Z,14.30
2018-08-22T20:48:06.000Z,13.50
2018-08-22T20:50:35.198Z,12.83
2018-08-22T20:53:06.050Z,13.53
2018-08-22T20:55:34.732Z,12.50
2018-08-22T20:58:04.109Z,13.67
2018-08-22T21:00:34.061Z,11.83
2018-08-22T21:03:02.634Z,13.33
2018-08-22T21:05:31.186Z,14.33
2018-08-22T21:07:59.914Z,14.43
2018-08-22T21:10:28.466Z,13.20
2018-08-22T21:12:56.971Z,13.83
2018-08-22T21:15:25.519Z,15.08
2018-08-22T21:17:54.071Z,14.57
2018-08-22T21:20:25.728Z,15.03
2018-08-22T21:22:55.766Z,14.53
2018-08-22T21:25:24.231Z,15.13
2018-08-22T21:27:53.296Z,14.23
2018-08-22T21:30:22.170Z,15.10
2018-08-22T21:32:50.834Z,13.80
2018-08-22T21:35:23.737Z,14.10
2018-08-22T21:37:53.144Z,15.50
2018-08-22T21:40:22.189Z,14.40
2018-08-22T21:42:50.683Z,13.83
2018-08-22T21:45:19.225Z,13.47
2018-08-22T21:47:47.882Z,15.23
2018-08-22T21:50:17.733Z,14.60
2018-08-22T21:52:53.210Z,14.10
2018-08-22T21:55:26.858Z,13.50
2018-08-22T21:57:55.378Z,14.17
2018-08-22T22:00:27.044Z,13.60
2018-08-22T22:02:56.021Z,14.60
2018-08-22T22:05:35.761Z,13.43
2018-08-22T22:08:05.082Z,13.73
2018-08-22T22:10:34.930Z,15.00
2018-08-22T22:13:03.451Z,14.00
2018-08-22T22:15:37.290Z,14.70
2018-08-22T22:18:07.211Z,15.30
2018-08-22T22:20:35.718Z,14.00
2018-08-22T22:23:04.285Z,13.80
2018-08-22T22:25:33.527Z,15.43
2018-08-22T22:28:02.181Z,15.97
2018-08-22T22:36:32.762Z,15.53
